sensor_id;sensor_type;location;lat;lon;timestamp;pressure;altitude;pressure_sealevel;temperature;humidity
63009;BME280;49099;28.428;-16.488;2023-03-21T00:01:51;98548.44;;;19.04;52.25
63009;BME280;49099;28.428;-16.488;2023-03-21T00:04:19;98549.41;;;19.08;51.71
63009;BME280;49099;28.428;-16.488;2023-03-21T00:06:47;98547.66;;;19.04;51.55
63009;BME280;49099;28.428;-16.488;2023-03-21T00:09:14;98548.44;;;19.04;50.04
63009;BME280;49099;28.428;-16.488;2023-03-21T00:11:42;98548.13;;;18.97;49.96
63009;BME280;49099;28.428;-16.488;2023-03-21T00:14:09;98550.69;;;18.85;51.66
63009;BME280;49099;28.428;-16.488;2023-03-21T00:16:41;98543.72;;;18.84;51.38
63009;BME280;49099;28.428;-16.488;2023-03-21T00:19:12;98550.69;;;18.85;51.64
63009;BME280;49099;28.428;-16.488;2023-03-21T00:21:40;98552.09;;;18.91;51.10
63009;BME280;49099;28.428;-16.488;2023-03-21T00:24:28;98550.81;;;18.97;52.08
63009;BME280;49099;28.428;-16.488;2023-03-21T00:26:56;98554.16;;;18.94;49.45
63009;BME280;49099;28.428;-16.488;2023-03-21T00:29:43;98551.75;;;18.75;50.03
63009;BME280;49099;28.428;-16.488;2023-03-21T00:32:10;98549.22;;;18.61;49.65
63009;BME280;49099;28.428;-16.488;2023-03-21T00:34:37;98558.84;;;18.45;51.21
63009;BME280;49099;28.428;-16.488;2023-03-21T00:37:19;98562.28;;;18.37;50.84
63009;BME280;49099;28.428;-16.488;2023-03-21T00:39:47;98555.00;;;18.29;51.62
63009;BME280;49099;28.428;-16.488;2023-03-21T00:42:17;98552.94;;;18.26;51.43
63009;BME280;49099;28.428;-16.488;2023-03-21T00:44:44;98554.19;;;18.28;51.64
63009;BME280;49099;28.428;-16.488;2023-03-21T00:47:12;98544.88;;;18.26;51.77
63009;BME280;49099;28.428;-16.488;2023-03-21T00:49:39;98548.66;;;18.25;52.36
63009;BME280;49099;28.428;-16.488;2023-03-21T00:52:08;98552.63;;;18.36;52.88
63009;BME280;49099;28.428;-16.488;2023-03-21T00:54:56;98552.69;;;18.45;52.26
63009;BME280;49099;28.428;-16.488;2023-03-21T00:57:23;98540.97;;;18.49;53.39
63009;BME280;49099;28.428;-16.488;2023-03-21T01:00:06;98531.03;;;18.58;52.58
63009;BME280;49099;28.428;-16.488;2023-03-21T01:02:35;98519.81;;;18.56;52.79
63009;BME280;49099;28.428;-16.488;2023-03-21T01:05:04;98516.47;;;18.59;52.22
63009;BME280;49099;28.428;-16.488;2023-03-21T01:07:31;98512.69;;;18.52;52.29
63009;BME280;49099;28.428;-16.488;2023-03-21T01:09:58;98504.81;;;18.47;52.37
63009;BME280;49099;28.428;-16.488;2023-03-21T01:12:25;98495.63;;;18.56;52.42
63009;BME280;49099;28.428;-16.488;2023-03-21T01:14:53;98497.22;;;18.57;51.96
63009;BME280;49099;28.428;-16.488;2023-03-21T01:17:20;98483.31;;;18.55;51.86
63009;BME280;49099;28.428;-16.488;2023-03-21T01:19:51;98477.47;;;18.53;51.98
63009;BME280;49099;28.428;-16.488;2023-03-21T01:22:19;98472.41;;;18.60;53.58
63009;BME280;49099;28.428;-16.488;2023-03-21T01:24:46;98464.84;;;18.62;52.02
63009;BME280;49099;28.428;-16.488;2023-03-21T01:27:31;98462.31;;;18.66;50.67
63009;BME280;49099;28.428;-16.488;2023-03-21T01:29:58;98452.19;;;18.54;50.79
63009;BME280;49099;28.428;-16.488;2023-03-21T01:32:25;98456.47;;;18.55;53.30
63009;BME280;49099;28.428;-16.488;2023-03-21T01:34:52;98464.97;;;18.57;51.73
63009;BME280;49099;28.428;-16.488;2023-03-21T01:37:19;98467.84;;;18.52;51.88
63009;BME280;49099;28.428;-16.488;2023-03-21T01:39:47;98466.09;;;18.56;52.58
63009;BME280;49099;28.428;-16.488;2023-03-21T01:42:14;98470.34;;;18.57;52.54
63009;BME280;49099;28.428;-16.488;2023-03-21T01:45:02;98480.31;;;18.57;53.34
63009;BME280;49099;28.428;-16.488;2023-03-21T01:47:30;98474.16;;;18.56;52.92
63009;BME280;49099;28.428;-16.488;2023-03-21T01:50:01;98482.66;;;18.58;54.14
63009;BME280;49099;28.428;-16.488;2023-03-21T01:52:35;98478.59;;;18.61;53.63
63009;BME280;49099;28.428;-16.488;2023-03-21T01:55:08;98483.03;;;18.65;54.56
63009;BME280;49099;28.428;-16.488;2023-03-21T01:57:46;98475.91;;;18.70;53.40
63009;BME280;49099;28.428;-16.488;2023-03-21T02:00:31;98468.13;;;18.59;54.32
63009;BME280;49099;28.428;-16.488;2023-03-21T02:03:00;98472.09;;;18.62;54.72
63009;BME280;49099;28.428;-16.488;2023-03-21T02:05:59;98482.41;;;18.69;55.00
63009;BME280;49099;28.428;-16.488;2023-03-21T02:08:29;98479.22;;;18.67;55.31
63009;BME280;49099;28.428;-16.488;2023-03-21T02:11:07;98477.03;;;18.69;55.05
63009;BME280;49099;28.428;-16.488;2023-03-21T02:13:35;98472.59;;;18.73;54.91
63009;BME280;49099;28.428;-16.488;2023-03-21T02:16:11;98468.00;;;18.82;55.57
63009;BME280;49099;28.428;-16.488;2023-03-21T02:30:01;98466.25;;;18.86;54.91
63009;BME280;49099;28.428;-16.488;2023-03-21T02:38:33;98438.91;;;18.75;55.64
63009;BME280;49099;28.428;-16.488;2023-03-21T02:41:12;98435.94;;;18.77;55.24
63009;BME280;49099;28.428;-16.488;2023-03-21T02:46:37;98428.78;;;18.81;54.46
63009;BME280;49099;28.428;-16.488;2023-03-21T02:49:25;98425.31;;;18.80;53.75
63009;BME280;49099;28.428;-16.488;2023-03-21T02:51:56;98422.00;;;18.75;54.03
63009;BME280;49099;28.428;-16.488;2023-03-21T02:54:40;98408.56;;;18.75;53.77
63009;BME280;49099;28.428;-16.488;2023-03-21T02:57:17;98411.25;;;18.75;54.04
63009;BME280;49099;28.428;-16.488;2023-03-21T02:59:47;98403.84;;;18.72;54.64
63009;BME280;49099;28.428;-16.488;2023-03-21T03:02:27;98407.19;;;18.69;54.12
63009;BME280;49099;28.428;-16.488;2023-03-21T03:04:56;98400.19;;;18.68;56.01
63009;BME280;49099;28.428;-16.488;2023-03-21T03:07:39;98390.41;;;18.72;53.94
63009;BME280;49099;28.428;-16.488;2023-03-21T03:25:45;98357.00;;;19.28;52.03
63009;BME280;49099;28.428;-16.488;2023-03-21T03:28:20;98365.31;;;19.14;50.12
63009;BME280;49099;28.428;-16.488;2023-03-21T03:30:49;98354.47;;;18.93;50.60
63009;BME280;49099;28.428;-16.488;2023-03-21T03:33:35;98354.66;;;18.80;50.94
63009;BME280;49099;28.428;-16.488;2023-03-21T03:36:06;98353.09;;;18.79;52.31
63009;BME280;49099;28.428;-16.488;2023-03-21T03:38:45;98348.50;;;18.79;51.88
63009;BME280;49099;28.428;-16.488;2023-03-21T03:41:21;98350.28;;;18.67;50.83
63009;BME280;49099;28.428;-16.488;2023-03-21T03:43:54;98349.31;;;18.62;51.16
63009;BME280;49099;28.428;-16.488;2023-03-21T03:46:30;98344.56;;;18.59;51.15
63009;BME280;49099;28.428;-16.488;2023-03-21T03:49:20;98346.50;;;18.50;50.66
63009;BME280;49099;28.428;-16.488;2023-03-21T03:52:00;98344.00;;;18.45;52.08
63009;BME280;49099;28.428;-16.488;2023-03-21T03:54:39;98344.44;;;18.47;50.99
63009;BME280;49099;28.428;-16.488;2023-03-21T03:57:08;98352.50;;;18.47;51.31
63009;BME280;49099;28.428;-16.488;2023-03-21T03:59:40;98345.09;;;18.53;51.39
63009;BME280;49099;28.428;-16.488;2023-03-21T04:02:08;98348.69;;;18.57;50.72
63009;BME280;49099;28.428;-16.488;2023-03-21T04:04:35;98345.38;;;18.51;51.69
63009;BME280;49099;28.428;-16.488;2023-03-21T04:07:03;98345.88;;;18.53;50.91
63009;BME280;49099;28.428;-16.488;2023-03-21T04:09:31;98345.38;;;18.51;51.01
63009;BME280;49099;28.428;-16.488;2023-03-21T04:12:11;98345.09;;;18.53;50.84
63009;BME280;49099;28.428;-16.488;2023-03-21T04:14:38;98339.09;;;18.47;51.44
63009;BME280;49099;28.428;-16.488;2023-03-21T04:17:12;98345.56;;;18.46;52.46
63009;BME280;49099;28.428;-16.488;2023-03-21T04:19:39;98344.00;;;18.45;52.08
63009;BME280;49099;28.428;-16.488;2023-03-21T04:22:07;98345.56;;;18.46;52.13
63009;BME280;49099;28.428;-16.488;2023-03-21T04:24:34;98345.25;;;18.48;51.25
63009;BME280;49099;28.428;-16.488;2023-03-21T04:27:03;98345.09;;;18.53;51.41
63009;BME280;49099;28.428;-16.488;2023-03-21T04:29:32;98349.00;;;18.55;51.16
63009;BME280;49099;28.428;-16.488;2023-03-21T04:31:59;98346.16;;;18.52;51.72
63009;BME280;49099;28.428;-16.488;2023-03-21T04:34:27;98360.41;;;18.52;51.04
63009;BME280;49099;28.428;-16.488;2023-03-21T04:36:54;98356.63;;;18.53;50.86
63009;BME280;49099;28.428;-16.488;2023-03-21T04:39:22;98364.66;;;18.53;50.33
63009;BME280;49099;28.428;-16.488;2023-03-21T04:41:50;98362.59;;;18.50;50.25
63009;BME280;49099;28.428;-16.488;2023-03-21T04:44:18;98359.91;;;18.50;51.06
63009;BME280;49099;28.428;-16.488;2023-03-21T04:46:45;98359.44;;;18.48;51.09
63009;BME280;49099;28.428;-16.488;2023-03-21T04:49:12;98357.41;;;18.54;51.19
63009;BME280;49099;28.428;-16.488;2023-03-21T04:51:40;98355.97;;;18.56;51.37
63009;BME280;49099;28.428;-16.488;2023-03-21T04:54:09;98353.44;;;18.60;50.32
63009;BME280;49099;28.428;-16.488;2023-03-21T04:56:38;98356.63;;;18.53;51.35
63009;BME280;49099;28.428;-16.488;2023-03-21T04:59:09;98353.28;;;18.56;51.22
63009;BME280;49099;28.428;-16.488;2023-03-21T05:01:37;98352.16;;;18.57;50.49
63009;BME280;49099;28.428;-16.488;2023-03-21T05:04:06;98351.69;;;18.55;49.98
63009;BME280;49099;28.428;-16.488;2023-03-21T05:06:34;98346.78;;;18.57;50.27
63009;BME280;49099;28.428;-16.488;2023-03-21T05:09:03;98352.50;;;18.56;50.36
63009;BME280;49099;28.428;-16.488;2023-03-21T05:11:32;98352.16;;;18.57;52.13
63009;BME280;49099;28.428;-16.488;2023-03-21T05:14:04;98350.44;;;18.61;50.64
63009;BME280;49099;28.428;-16.488;2023-03-21T05:16:31;98343.31;;;18.65;51.19
63009;BME280;49099;28.428;-16.488;2023-03-21T05:19:01;98354.06;;;18.65;51.45
63009;BME280;49099;28.428;-16.488;2023-03-21T05:21:31;98350.91;;;18.63;51.86
63009;BME280;49099;28.428;-16.488;2023-03-21T05:24:13;98347.75;;;18.61;51.59
63009;BME280;49099;28.428;-16.488;2023-03-21T05:26:42;98349.78;;;18.64;51.17
63009;BME280;49099;28.428;-16.488;2023-03-21T05:29:09;98351.84;;;18.68;51.04
63009;BME280;49099;28.428;-16.488;2023-03-21T05:31:37;98335.09;;;18.71;51.95
63009;BME280;49099;28.428;-16.488;2023-03-21T05:34:04;98339.19;;;18.77;51.24
63009;BME280;49099;28.428;-16.488;2023-03-21T05:36:31;98334.63;;;18.77;50.71
63009;BME280;49099;28.428;-16.488;2023-03-21T05:39:02;98336.31;;;18.82;50.18
63009;BME280;49099;28.428;-16.488;2023-03-21T05:41:29;98337.75;;;18.79;50.51
63009;BME280;49099;28.428;-16.488;2023-03-21T05:43:56;98341.09;;;18.76;50.76
63009;BME280;49099;28.428;-16.488;2023-03-21T05:46:23;98337.63;;;18.76;51.27
63009;BME280;49099;28.428;-16.488;2023-03-21T05:48:50;98336.81;;;18.75;50.99
63009;BME280;49099;28.428;-16.488;2023-03-21T05:51:18;98338.41;;;18.76;51.83
63009;BME280;49099;28.428;-16.488;2023-03-21T05:53:45;98336.31;;;18.82;51.20
63009;BME280;49099;28.428;-16.488;2023-03-21T05:56:12;98334.25;;;18.87;52.86
63009;BME280;49099;28.428;-16.488;2023-03-21T05:58:39;98339.13;;;18.94;51.90
63009;BME280;49099;28.428;-16.488;2023-03-21T06:01:07;98342.66;;;18.86;51.22
63009;BME280;49099;28.428;-16.488;2023-03-21T06:03:34;98352.31;;;18.78;51.89
63009;BME280;49099;28.428;-16.488;2023-03-21T06:06:01;98346.00;;;18.74;52.04
63009;BME280;49099;28.428;-16.488;2023-03-21T06:08:29;98354.53;;;18.68;52.05
63009;BME280;49099;28.428;-16.488;2023-03-21T06:10:57;98363.53;;;18.63;51.98
63009;BME280;49099;28.428;-16.488;2023-03-21T06:13:24;98370.19;;;18.65;52.40
63009;BME280;49099;28.428;-16.488;2023-03-21T06:15:51;98368.91;;;18.63;51.87
63009;BME280;49099;28.428;-16.488;2023-03-21T06:18:18;98363.22;;;18.64;51.72
63009;BME280;49099;28.428;-16.488;2023-03-21T06:20:46;98370.81;;;18.62;52.74
63009;BME280;49099;28.428;-16.488;2023-03-21T06:23:13;98374.28;;;18.72;51.94
63009;BME280;49099;28.428;-16.488;2023-03-21T06:25:41;98368.13;;;18.71;51.24
63009;BME280;49099;28.428;-16.488;2023-03-21T06:28:08;98366.56;;;18.70;51.24
63009;BME280;49099;28.428;-16.488;2023-03-21T06:30:35;98369.06;;;18.67;51.22
63009;BME280;49099;28.428;-16.488;2023-03-21T06:33:02;98368.91;;;18.63;52.27
63009;BME280;49099;28.428;-16.488;2023-03-21T06:35:29;98376.19;;;18.62;52.54
63009;BME280;49099;28.428;-16.488;2023-03-21T06:37:57;98373.50;;;18.62;51.87
63009;BME280;49099;28.428;-16.488;2023-03-21T06:40:24;98370.50;;;18.55;52.37
63009;BME280;49099;28.428;-16.488;2023-03-21T06:42:52;98373.66;;;18.57;53.22
63009;BME280;49099;28.428;-16.488;2023-03-21T06:45:19;98367.81;;;18.55;51.76
63009;BME280;49099;28.428;-16.488;2023-03-21T06:47:46;98373.19;;;18.55;53.03
63009;BME280;49099;28.428;-16.488;2023-03-21T06:50:13;98367.00;;;18.63;52.67
63009;BME280;49099;28.428;-16.488;2023-03-21T06:52:41;98369.25;;;18.61;53.24
63009;BME280;49099;28.428;-16.488;2023-03-21T06:55:09;98367.34;;;18.62;51.79
63009;BME280;49099;28.428;-16.488;2023-03-21T06:57:36;98376.34;;;18.57;51.92
63009;BME280;49099;28.428;-16.488;2023-03-21T07:00:03;98385.84;;;18.55;52.77
63009;BME280;49099;28.428;-16.488;2023-03-21T07:02:31;98370.19;;;18.48;52.53
63009;BME280;49099;28.428;-16.488;2023-03-21T07:04:58;98375.09;;;18.46;52.41
63009;BME280;49099;28.428;-16.488;2023-03-21T07:07:25;98364.22;;;18.34;52.61
63009;BME280;49099;28.428;-16.488;2023-03-21T07:09:53;98374.81;;;18.30;52.75
63009;BME280;49099;28.428;-16.488;2023-03-21T07:12:21;98373.06;;;18.26;53.93
63009;BME280;49099;28.428;-16.488;2023-03-21T07:14:51;98379.69;;;18.37;53.28
63009;BME280;49099;28.428;-16.488;2023-03-21T07:17:18;98375.59;;;18.40;53.17
63009;BME280;49099;28.428;-16.488;2023-03-21T07:19:46;98380.78;;;18.36;54.02
63009;BME280;49099;28.428;-16.488;2023-03-21T07:22:13;98376.38;;;18.40;53.76
63009;BME280;49099;28.428;-16.488;2023-03-21T07:24:40;98377.81;;;18.37;54.71
63009;BME280;49099;28.428;-16.488;2023-03-21T07:27:07;98377.47;;;18.39;54.28
63009;BME280;49099;28.428;-16.488;2023-03-21T07:29:34;98391.38;;;18.41;54.77
63009;BME280;49099;28.428;-16.488;2023-03-21T07:32:02;98399.44;;;18.41;55.04
63009;BME280;49099;28.428;-16.488;2023-03-21T07:34:29;98405.25;;;18.43;55.48
63009;BME280;49099;28.428;-16.488;2023-03-21T07:36:59;98394.81;;;18.59;56.33
63009;BME280;49099;28.428;-16.488;2023-03-21T07:39:26;98400.84;;;18.56;55.11
63009;BME280;49099;28.428;-16.488;2023-03-21T07:41:54;98400.84;;;18.47;55.05
63009;BME280;49099;28.428;-16.488;2023-03-21T07:44:24;98399.91;;;18.60;55.77
63009;BME280;49099;28.428;-16.488;2023-03-21T07:46:51;98393.41;;;18.61;55.74
63009;BME280;49099;28.428;-16.488;2023-03-21T07:49:18;98391.69;;;18.65;55.88
63009;BME280;49099;28.428;-16.488;2023-03-21T07:51:46;98399.13;;;18.69;55.80
63009;BME280;49099;28.428;-16.488;2023-03-21T07:54:13;98401.16;;;18.72;55.27
63009;BME280;49099;28.428;-16.488;2023-03-21T07:56:40;98403.97;;;18.75;55.18
63009;BME280;49099;28.428;-16.488;2023-03-21T07:59:07;98409.38;;;18.67;55.40
63009;BME280;49099;28.428;-16.488;2023-03-21T08:01:35;98414.56;;;18.63;55.42
63009;BME280;49099;28.428;-16.488;2023-03-21T08:04:03;98418.06;;;18.55;55.09
63009;BME280;49099;28.428;-16.488;2023-03-21T08:06:30;98412.69;;;18.55;54.87
63009;BME280;49099;28.428;-16.488;2023-03-21T08:08:58;98417.88;;;18.51;54.47
63009;BME280;49099;28.428;-16.488;2023-03-21T08:11:26;98424.22;;;18.55;54.20
63009;BME280;49099;28.428;-16.488;2023-03-21T08:13:57;98410.00;;;18.72;53.42
63009;BME280;49099;28.428;-16.488;2023-03-21T08:16:25;98426.44;;;18.71;52.69
63009;BME280;49099;28.428;-16.488;2023-03-21T08:18:52;98416.16;;;18.73;52.53
63009;BME280;49099;28.428;-16.488;2023-03-21T08:21:19;98418.22;;;18.76;52.40
63009;BME280;49099;28.428;-16.488;2023-03-21T08:23:46;98423.25;;;18.86;52.57
63009;BME280;49099;28.428;-16.488;2023-03-21T08:26:13;98423.88;;;18.83;52.83
63009;BME280;49099;28.428;-16.488;2023-03-21T08:28:45;98433.06;;;18.82;52.87
63009;BME280;49099;28.428;-16.488;2023-03-21T08:31:12;98427.84;;;18.85;53.79
63009;BME280;49099;28.428;-16.488;2023-03-21T08:33:40;98432.13;;;18.86;54.29
63009;BME280;49099;28.428;-16.488;2023-03-21T08:36:08;98428.63;;;18.95;54.24
63009;BME280;49099;28.428;-16.488;2023-03-21T08:38:35;98433.97;;;19.03;53.77
63009;BME280;49099;28.428;-16.488;2023-03-21T08:41:03;98440.00;;;19.00;53.80
63009;BME280;49099;28.428;-16.488;2023-03-21T08:43:30;98442.78;;;19.12;53.03
63009;BME280;49099;28.428;-16.488;2023-03-21T08:45:57;98446.72;;;19.24;53.56
63009;BME280;49099;28.428;-16.488;2023-03-21T08:48:24;98438.78;;;19.27;54.53
63009;BME280;49099;28.428;-16.488;2023-03-21T08:50:51;98453.69;;;19.25;54.49
63009;BME280;49099;28.428;-16.488;2023-03-21T08:53:18;98451.78;;;19.25;56.25
63009;BME280;49099;28.428;-16.488;2023-03-21T08:55:45;98445.63;;;19.25;57.61
63009;BME280;49099;28.428;-16.488;2023-03-21T08:58:12;98450.03;;;19.20;57.44
63009;BME280;49099;28.428;-16.488;2023-03-21T09:00:40;98450.81;;;19.30;57.49
63009;BME280;49099;28.428;-16.488;2023-03-21T09:03:07;98456.00;;;19.35;57.38
63009;BME280;49099;28.428;-16.488;2023-03-21T09:05:37;98465.31;;;19.37;57.20
63009;BME280;49099;28.428;-16.488;2023-03-21T09:08:05;98465.50;;;19.41;57.85
63009;BME280;49099;28.428;-16.488;2023-03-21T09:10:33;98463.75;;;19.36;58.15
63009;BME280;49099;28.428;-16.488;2023-03-21T09:13:00;98459.03;;;19.33;58.46
63009;BME280;49099;28.428;-16.488;2023-03-21T09:15:27;98459.16;;;19.37;58.42
63009;BME280;49099;28.428;-16.488;2023-03-21T09:17:56;98456.66;;;19.32;58.48
63009;BME280;49099;28.428;-16.488;2023-03-21T09:20:25;98457.00;;;19.30;59.00
63009;BME280;49099;28.428;-16.488;2023-03-21T09:22:58;98454.16;;;19.27;58.56
63009;BME280;49099;28.428;-16.488;2023-03-21T09:25:25;98449.88;;;19.26;58.51
63009;BME280;49099;28.428;-16.488;2023-03-21T09:27:58;98453.34;;;19.26;58.21
63009;BME280;49099;28.428;-16.488;2023-03-21T09:30:26;98456.84;;;19.27;58.38
63009;BME280;49099;28.428;-16.488;2023-03-21T09:32:54;98461.13;;;19.19;58.54
63009;BME280;49099;28.428;-16.488;2023-03-21T09:35:21;98464.31;;;19.12;58.42
63009;BME280;49099;28.428;-16.488;2023-03-21T09:37:49;98461.63;;;19.12;58.72
63009;BME280;49099;28.428;-16.488;2023-03-21T09:40:43;98463.69;;;19.15;58.49
63009;BME280;49099;28.428;-16.488;2023-03-21T09:43:44;98466.19;;;19.20;58.50
63009;BME280;49099;28.428;-16.488;2023-03-21T09:46:39;98467.13;;;19.25;59.09
63009;BME280;49099;28.428;-16.488;2023-03-21T09:49:24;98476.00;;;19.16;59.74
63009;BME280;49099;28.428;-16.488;2023-03-21T09:52:03;98474.25;;;19.20;59.52
63009;BME280;49099;28.428;-16.488;2023-03-21T09:54:39;98474.06;;;19.26;59.12
63009;BME280;49099;28.428;-16.488;2023-03-21T09:57:18;98481.34;;;19.34;59.03
63009;BME280;49099;28.428;-16.488;2023-03-21T09:59:49;98479.09;;;19.36;59.02
63009;BME280;49099;28.428;-16.488;2023-03-21T10:02:36;98484.16;;;19.46;58.62
63009;BME280;49099;28.428;-16.488;2023-03-21T10:05:26;98483.38;;;19.45;58.94
63009;BME280;49099;28.428;-16.488;2023-03-21T10:08:13;98479.56;;;19.46;59.17
63009;BME280;49099;28.428;-16.488;2023-03-21T10:10:50;98477.16;;;19.45;59.24
63009;BME280;49099;28.428;-16.488;2023-03-21T10:13:23;98487.13;;;19.44;59.45
63009;BME280;49099;28.428;-16.488;2023-03-21T10:16:09;98474.78;;;19.52;59.13
63009;BME280;49099;28.428;-16.488;2023-03-21T10:18:40;98481.44;;;19.55;59.44
63009;BME280;49099;28.428;-16.488;2023-03-21T10:21:21;98485.22;;;19.54;59.68
63009;BME280;49099;28.428;-16.488;2023-03-21T10:24:11;98485.06;;;19.50;59.37
63009;BME280;49099;28.428;-16.488;2023-03-21T10:26:41;98484.63;;;19.48;59.31
63009;BME280;49099;28.428;-16.488;2023-03-21T10:29:13;98491.25;;;19.51;59.55
63009;BME280;49099;28.428;-16.488;2023-03-21T10:31:43;98491.09;;;19.47;59.49
63009;BME280;49099;28.428;-16.488;2023-03-21T10:34:36;98486.66;;;19.51;60.10
63009;BME280;49099;28.428;-16.488;2023-03-21T10:37:06;98481.59;;;19.58;59.32
63009;BME280;49099;28.428;-16.488;2023-03-21T10:39:44;98479.22;;;19.57;59.67
63009;BME280;49099;28.428;-16.488;2023-03-21T10:42:29;98490.78;;;19.57;60.04
63009;BME280;49099;28.428;-16.488;2023-03-21T10:44:58;98490.91;;;19.52;59.64
63009;BME280;49099;28.428;-16.488;2023-03-21T10:47:30;98480.47;;;19.59;59.67
63009;BME280;49099;28.428;-16.488;2023-03-21T10:50:05;98481.28;;;19.51;60.28
63009;BME280;49099;28.428;-16.488;2023-03-21T10:52:40;98490.44;;;19.50;60.79
63009;BME280;49099;28.428;-16.488;2023-03-21T10:55:26;98490.13;;;19.60;60.63
63009;BME280;49099;28.428;-16.488;2023-03-21T10:58:15;98479.66;;;19.67;60.29
63009;BME280;49099;28.428;-16.488;2023-03-21T11:00:45;98486.44;;;19.73;60.04
63009;BME280;49099;28.428;-16.488;2023-03-21T11:03:37;98498.59;;;19.80;60.23
63009;BME280;49099;28.428;-16.488;2023-03-21T11:06:16;98496.81;;;19.84;60.33
63009;BME280;49099;28.428;-16.488;2023-03-21T11:08:53;98502.38;;;19.87;60.42
63009;BME280;49099;28.428;-16.488;2023-03-21T11:11:27;98505.97;;;19.91;60.69
63009;BME280;49099;28.428;-16.488;2023-03-21T11:13:58;98493.78;;;19.94;60.68
63009;BME280;49099;28.428;-16.488;2023-03-21T11:16:41;98493.78;;;19.94;60.34
63009;BME280;49099;28.428;-16.488;2023-03-21T11:19:18;98495.19;;;19.91;60.52
63009;BME280;49099;28.428;-16.488;2023-03-21T11:21:46;98506.13;;;19.95;60.85
63009;BME280;49099;28.428;-16.488;2023-03-21T11:24:17;98500.06;;;19.98;59.76
63009;BME280;49099;28.428;-16.488;2023-03-21T11:26:47;98501.66;;;19.99;59.82
63009;BME280;49099;28.428;-16.488;2023-03-21T11:31:48;98493.53;;;20.08;59.86
63009;BME280;49099;28.428;-16.488;2023-03-21T11:34:29;98495.25;;;20.12;60.10
63009;BME280;49099;28.428;-16.488;2023-03-21T11:36:59;98494.59;;;20.15;59.97
63009;BME280;49099;28.428;-16.488;2023-03-21T11:39:36;98493.72;;;20.32;59.26
63009;BME280;49099;28.428;-16.488;2023-03-21T11:42:25;98489.19;;;20.45;58.38
63009;BME280;49099;28.428;-16.488;2023-03-21T11:45:04;98480.81;;;20.38;58.31
63009;BME280;49099;28.428;-16.488;2023-03-21T11:47:36;98486.19;;;20.38;58.39
63009;BME280;49099;28.428;-16.488;2023-03-21T11:53:07;98481.03;;;20.33;59.97
63009;BME280;49099;28.428;-16.488;2023-03-21T11:56:08;98474.78;;;20.41;59.66
63009;BME280;49099;28.428;-16.488;2023-03-21T12:03:56;98465.59;;;20.42;59.11
63009;BME280;49099;28.428;-16.488;2023-03-21T12:06:44;98465.19;;;20.31;59.00
63009;BME280;49099;28.428;-16.488;2023-03-21T12:09:36;98461.84;;;20.34;59.86
63009;BME280;49099;28.428;-16.488;2023-03-21T12:12:32;98449.81;;;20.31;59.21
63009;BME280;49099;28.428;-16.488;2023-03-21T12:15:16;98451.41;;;20.33;58.57
63009;BME280;49099;28.428;-16.488;2023-03-21T12:37:22;98437.69;;;21.12;57.76
63009;BME280;49099;28.428;-16.488;2023-03-21T12:40:03;98432.16;;;20.97;57.90
63009;BME280;49099;28.428;-16.488;2023-03-21T12:42:40;98437.97;;;20.86;58.23
63009;BME280;49099;28.428;-16.488;2023-03-21T12:45:12;98434.53;;;20.77;58.52
63009;BME280;49099;28.428;-16.488;2023-03-21T12:47:47;98433.13;;;20.59;58.88
63009;BME280;49099;28.428;-16.488;2023-03-21T12:53:37;98420.53;;;20.51;58.90
63009;BME280;49099;28.428;-16.488;2023-03-21T12:56:12;98414.06;;;20.43;59.20
63009;BME280;49099;28.428;-16.488;2023-03-21T12:58:47;98416.97;;;20.59;59.07
63009;BME280;49099;28.428;-16.488;2023-03-21T13:01:18;98426.19;;;20.58;58.72
63009;BME280;49099;28.428;-16.488;2023-03-21T13:03:58;98407.91;;;20.43;59.84
63009;BME280;49099;28.428;-16.488;2023-03-21T13:06:29;98411.72;;;20.42;60.50
63009;BME280;49099;28.428;-16.488;2023-03-21T13:09:13;98421.28;;;20.30;60.19
63009;BME280;49099;28.428;-16.488;2023-03-21T13:11:51;98412.03;;;20.40;59.82
63009;BME280;49099;28.428;-16.488;2023-03-21T13:14:27;98407.75;;;20.60;60.03
63009;BME280;49099;28.428;-16.488;2023-03-21T13:17:09;98410.75;;;20.79;59.31
63009;BME280;49099;28.428;-16.488;2023-03-21T13:20:05;98401.13;;;20.91;58.42
63009;BME280;49099;28.428;-16.488;2023-03-21T13:22:34;98399.59;;;21.02;58.20
63009;BME280;49099;28.428;-16.488;2023-03-21T13:25:21;98395.88;;;21.06;58.08
63009;BME280;49099;28.428;-16.488;2023-03-21T13:28:15;98400.47;;;21.06;57.59
63009;BME280;49099;28.428;-16.488;2023-03-21T13:30:43;98394.88;;;21.11;57.96
63009;BME280;49099;28.428;-16.488;2023-03-21T13:33:13;98398.00;;;21.13;58.31
63009;BME280;49099;28.428;-16.488;2023-03-21T13:35:44;98397.91;;;21.09;58.43
63009;BME280;49099;28.428;-16.488;2023-03-21T13:38:41;98392.72;;;21.17;56.97
63009;BME280;49099;28.428;-16.488;2023-03-21T13:41:19;98396.41;;;21.00;56.41
63009;BME280;49099;28.428;-16.488;2023-03-21T13:44:05;98391.41;;;20.77;57.35
63009;BME280;49099;28.428;-16.488;2023-03-21T13:46:52;98389.50;;;20.66;57.88
63009;BME280;49099;28.428;-16.488;2023-03-21T13:49:35;98400.00;;;20.58;58.53
63009;BME280;49099;28.428;-16.488;2023-03-21T13:52:26;98407.44;;;20.41;58.93
63009;BME280;49099;28.428;-16.488;2023-03-21T13:54:55;98391.81;;;20.34;59.84
63009;BME280;49099;28.428;-16.488;2023-03-21T14:02:53;98387.31;;;20.38;59.75
63009;BME280;49099;28.428;-16.488;2023-03-21T14:05:23;98393.47;;;20.26;60.27
63009;BME280;49099;28.428;-16.488;2023-03-21T14:07:57;98378.78;;;20.36;59.89
63009;BME280;49099;28.428;-16.488;2023-03-21T14:10:42;98380.16;;;20.42;59.33
63009;BME280;49099;28.428;-16.488;2023-03-21T14:13:16;98381.81;;;20.35;59.01
63009;BME280;49099;28.428;-16.488;2023-03-21T14:15:48;98378.00;;;20.36;60.31
63009;BME280;49099;28.428;-16.488;2023-03-21T14:18:24;98362.81;;;20.52;60.12
63009;BME280;49099;28.428;-16.488;2023-03-21T14:21:00;98366.09;;;20.37;60.02
63009;BME280;49099;28.428;-16.488;2023-03-21T14:23:30;98362.19;;;20.55;59.68